sensor_id;sensor_type;location;lat;lon;timestamp;pressure;altitude;pressure_sealevel;temperature;humidity
53699;BME280;68408;53.952;27.612;2024-01-27T00:03:58;1010.1;;;4.3;62.4
53699;BME280;68408;53.952;27.612;2024-01-27T00:08:57;1010.1;;;4.3;62.4
53699;BME280;68408;53.952;27.612;2024-01-27T00:14:17;1010.1;;;4.2;62.7
53699;BME280;68408;53.952;27.612;2024-01-27T00:19:27;1010.1;;;4.2;63
53699;BME280;68408;53.952;27.612;2024-01-27T00:24:19;1010;;;4.1;63.1
53699;BME280;68408;53.952;27.612;2024-01-27T00:28:53;1010;;;4.1;63.1
53699;BME280;68408;53.952;27.612;2024-01-27T00:34:26;1010;;;4.1;62.9
53699;BME280;68408;53.952;27.612;2024-01-27T00:38:51;1010;;;4;63.2
53699;BME280;68408;53.952;27.612;2024-01-27T00:44:27;1010.1;;;4;63.5
53699;BME280;68408;53.952;27.612;2024-01-27T00:49:27;1010.1;;;4.1;63.6
53699;BME280;68408;53.952;27.612;2024-01-27T00:54:17;1010.1;;;4.1;63.6
53699;BME280;68408;53.952;27.612;2024-01-27T00:58:51;1010.1;;;4;63.7
53699;BME280;68408;53.952;27.612;2024-01-27T01:04:13;1010.1;;;4.1;63.8
53699;BME280;68408;53.952;27.612;2024-01-27T01:09:19;1010.2;;;4.1;63.7
53699;BME280;68408;53.952;27.612;2024-01-27T01:14:27;1010.2;;;4.1;63.7
53699;BME280;68408;53.952;27.612;2024-01-27T01:19:02;1010.2;;;4.1;63.8
53699;BME280;68408;53.952;27.612;2024-01-27T01:24:27;1010.2;;;4.1;63.8
53699;BME280;68408;53.952;27.612;2024-01-27T01:29:15;1010.2;;;4.1;63.7
53699;BME280;68408;53.952;27.612;2024-01-27T01:33:51;1010.2;;;4.1;63.7
53699;BME280;68408;53.952;27.612;2024-01-27T01:38:57;1010.2;;;4.2;63.5
53699;BME280;68408;53.952;27.612;2024-01-27T01:44:05;1010.2;;;4.2;63.4
53699;BME280;68408;53.952;27.612;2024-01-27T01:48:57;1010.2;;;4.2;63.3
53699;BME280;68408;53.952;27.612;2024-01-27T01:53:57;1010.1;;;4.2;63.2
53699;BME280;68408;53.952;27.612;2024-01-27T01:58:59;1010.2;;;4.1;63.3
53699;BME280;68408;53.952;27.612;2024-01-27T02:04:05;1010.2;;;4.1;63.4
53699;BME280;68408;53.952;27.612;2024-01-27T02:09:07;1010.2;;;4.1;63.5
53699;BME280;68408;53.952;27.612;2024-01-27T02:14:05;1010.2;;;4.1;63.5
53699;BME280;68408;53.952;27.612;2024-01-27T02:19:27;1010.1;;;4.1;63.5
53699;BME280;68408;53.952;27.612;2024-01-27T02:24:07;1010.1;;;4.1;63.4
53699;BME280;68408;53.952;27.612;2024-01-27T02:28:53;1010.1;;;4.1;63.3
53699;BME280;68408;53.952;27.612;2024-01-27T02:34:03;1010.1;;;4.1;63.5
53699;BME280;68408;53.952;27.612;2024-01-27T02:39:13;1010;;;4.1;63.2
53699;BME280;68408;53.952;27.612;2024-01-27T02:44:11;1010;;;4.1;63.3
53699;BME280;68408;53.952;27.612;2024-01-27T02:49:27;1010;;;4.1;63.4
53699;BME280;68408;53.952;27.612;2024-01-27T02:54:17;1010;;;4.1;63.2
53699;BME280;68408;53.952;27.612;2024-01-27T02:59:27;1010;;;4;63.2
53699;BME280;68408;53.952;27.612;2024-01-27T03:04:27;1010;;;4;63.3
53699;BME280;68408;53.952;27.612;2024-01-27T03:09:19;1010;;;4;63.4
53699;BME280;68408;53.952;27.612;2024-01-27T03:13:57;1010.1;;;4;63.4
53699;BME280;68408;53.952;27.612;2024-01-27T03:18:51;1010.1;;;4;63.4
53699;BME280;68408;53.952;27.612;2024-01-27T03:23:51;1010.1;;;4;63.2
53699;BME280;68408;53.952;27.612;2024-01-27T03:28:57;1010.1;;;3.9;63.4
53699;BME280;68408;53.952;27.612;2024-01-27T03:34:19;1010.1;;;4;63.4
53699;BME280;68408;53.952;27.612;2024-01-27T03:38:57;1010.1;;;4;63.4
53699;BME280;68408;53.952;27.612;2024-01-27T03:44:27;1010.1;;;4;63.1
53699;BME280;68408;53.952;27.612;2024-01-27T03:49:19;1010.1;;;4;63.1
53699;BME280;68408;53.952;27.612;2024-01-27T03:54:27;1010.2;;;4;63
53699;BME280;68408;53.952;27.612;2024-01-27T03:58:51;1010.2;;;4;62.9
53699;BME280;68408;53.952;27.612;2024-01-27T04:04:17;1010.2;;;3.9;62.5
53699;BME280;68408;53.952;27.612;2024-01-27T04:08:51;1010.2;;;3.8;62.4
53699;BME280;68408;53.952;27.612;2024-01-27T04:14:13;1010.3;;;3.8;62.9
53699;BME280;68408;53.952;27.612;2024-01-27T04:19:27;1010.3;;;3.7;63.2
53699;BME280;68408;53.952;27.612;2024-01-27T04:23:59;1010.3;;;3.6;63.3
53699;BME280;68408;53.952;27.612;2024-01-27T04:29:09;1010.3;;;3.5;63.7
53699;BME280;68408;53.952;27.612;2024-01-27T04:34:27;1010.3;;;3.4;63.8
53699;BME280;68408;53.952;27.612;2024-01-27T04:39:27;1010.4;;;3.4;64
53699;BME280;68408;53.952;27.612;2024-01-27T04:44:19;1010.4;;;3.4;63.9
53699;BME280;68408;53.952;27.612;2024-01-27T04:49:03;1010.5;;;3.4;64.1
53699;BME280;68408;53.952;27.612;2024-01-27T04:53:51;1010.6;;;3.4;63.9
53699;BME280;68408;53.952;27.612;2024-01-27T04:58:57;1010.7;;;3.3;63.9
53699;BME280;68408;53.952;27.612;2024-01-27T05:03:57;1010.7;;;3.3;64.1
53699;BME280;68408;53.952;27.612;2024-01-27T05:08:51;1010.7;;;3.3;64.1
53699;BME280;68408;53.952;27.612;2024-01-27T05:14:13;1010.8;;;3.3;64.1
53699;BME280;68408;53.952;27.612;2024-01-27T05:19:13;1010.8;;;3.4;63.9
53699;BME280;68408;53.952;27.612;2024-01-27T05:24:05;1010.8;;;3.4;63.6
53699;BME280;68408;53.952;27.612;2024-01-27T05:29:27;1010.8;;;3.4;63.5
53699;BME280;68408;53.952;27.612;2024-01-27T05:34:15;1010.9;;;3.5;63.4
53699;BME280;68408;53.952;27.612;2024-01-27T05:39:09;1010.9;;;3.5;63.2
53699;BME280;68408;53.952;27.612;2024-01-27T05:44:03;1011;;;3.4;63.3
53699;BME280;68408;53.952;27.612;2024-01-27T05:49:07;1011.1;;;3.5;63
53699;BME280;68408;53.952;27.612;2024-01-27T05:54:27;1011.1;;;3.5;63
53699;BME280;68408;53.952;27.612;2024-01-27T05:59:03;1011.1;;;3.4;63
53699;BME280;68408;53.952;27.612;2024-01-27T06:04:19;1011.2;;;3.3;63.4
53699;BME280;68408;53.952;27.612;2024-01-27T06:09:19;1011.2;;;3.3;63.6
53699;BME280;68408;53.952;27.612;2024-01-27T06:14:17;1011.2;;;3.2;63.8
53699;BME280;68408;53.952;27.612;2024-01-27T06:19:09;1011.2;;;3.3;63.8
53699;BME280;68408;53.952;27.612;2024-01-27T06:23:53;1011.3;;;3.4;63.8
53699;BME280;68408;53.952;27.612;2024-01-27T06:28:59;1011.4;;;3.4;63.5
53699;BME280;68408;53.952;27.612;2024-01-27T06:34:11;1011.4;;;3.5;63.5
53699;BME280;68408;53.952;27.612;2024-01-27T06:38:51;1011.5;;;3.6;63.3
53699;BME280;68408;53.952;27.612;2024-01-27T06:44:03;1011.5;;;3.7;63
53699;BME280;68408;53.952;27.612;2024-01-27T06:48:51;1011.6;;;3.7;62.6
53699;BME280;68408;53.952;27.612;2024-01-27T06:54:27;1011.6;;;3.7;62.9
53699;BME280;68408;53.952;27.612;2024-01-27T06:59:19;1011.7;;;3.8;62.8
53699;BME280;68408;53.952;27.612;2024-01-27T07:04:25;1011.7;;;3.9;62.7
53699;BME280;68408;53.952;27.612;2024-01-27T07:09:27;1011.7;;;3.8;62.5
53699;BME280;68408;53.952;27.612;2024-01-27T07:14:05;1011.8;;;3.9;62.6
53699;BME280;68408;53.952;27.612;2024-01-27T07:19:27;1011.9;;;4;62.3
53699;BME280;68408;53.952;27.612;2024-01-27T07:24:27;1012;;;4;62.1
53699;BME280;68408;53.952;27.612;2024-01-27T07:29:11;1012;;;4;62.1
53699;BME280;68408;53.952;27.612;2024-01-27T07:33:57;1012.1;;;4;62
53699;BME280;68408;53.952;27.612;2024-01-27T07:39:13;1012.1;;;4.2;62.1
53699;BME280;68408;53.952;27.612;2024-01-27T07:43:54;1012.2;;;4.3;61.6
53699;BME280;68408;53.952;27.612;2024-01-27T07:49:27;1012.3;;;4.4;61.4
53699;BME280;68408;53.952;27.612;2024-01-27T07:54:09;1012.3;;;4.6;60.9
53699;BME280;68408;53.952;27.612;2024-01-27T07:58:59;1012.3;;;4.8;60.5
53699;BME280;68408;53.952;27.612;2024-01-27T08:03:59;1012.4;;;4.9;60.1
53699;BME280;68408;53.952;27.612;2024-01-27T08:08:51;1012.4;;;5.1;59.5
53699;BME280;68408;53.952;27.612;2024-01-27T08:13:51;1012.4;;;5.2;59.2
53699;BME280;68408;53.952;27.612;2024-01-27T08:18:51;1012.5;;;5.3;58.9
53699;BME280;68408;53.952;27.612;2024-01-27T08:23:57;1012.5;;;5.4;58.5
53699;BME280;68408;53.952;27.612;2024-01-27T08:29:21;1012.6;;;5.5;57.9
53699;BME280;68408;53.952;27.612;2024-01-27T08:33:59;1012.6;;;5.6;57.9
53699;BME280;68408;53.952;27.612;2024-01-27T08:39:27;1012.6;;;5.6;58.1
53699;BME280;68408;53.952;27.612;2024-01-27T08:44:19;1012.7;;;5.6;58
53699;BME280;68408;53.952;27.612;2024-01-27T08:49:19;1012.7;;;5.7;58
53699;BME280;68408;53.952;27.612;2024-01-27T08:54:27;1012.8;;;5.8;57.6
53699;BME280;68408;53.952;27.612;2024-01-27T08:59:27;1012.9;;;5.9;57.4
53699;BME280;68408;53.952;27.612;2024-01-27T09:04:17;1012.9;;;6.1;57.1
53699;BME280;68408;53.952;27.612;2024-01-27T09:09:03;1012.9;;;6.1;56.9
53699;BME280;68408;53.952;27.612;2024-01-27T09:14:27;1013;;;6.1;56.7
53699;BME280;68408;53.952;27.612;2024-01-27T09:19:21;1013;;;6;56.7
53699;BME280;68408;53.952;27.612;2024-01-27T09:24:17;1013;;;5.9;56.7
53699;BME280;68408;53.952;27.612;2024-01-27T09:29:03;1013;;;6.1;56.6
53699;BME280;68408;53.952;27.612;2024-01-27T09:34:29;1013;;;6.3;56.3
53699;BME280;68408;53.952;27.612;2024-01-27T09:39:03;1013;;;6.3;55.9
53699;BME280;68408;53.952;27.612;2024-01-27T09:43:51;1013;;;6.5;55.6
53699;BME280;68408;53.952;27.612;2024-01-27T09:48:57;1013.1;;;6.6;55.3
53699;BME280;68408;53.952;27.612;2024-01-27T09:54:07;1013.1;;;6.7;54.8
53699;BME280;68408;53.952;27.612;2024-01-27T09:58:57;1013.1;;;6.7;54.7
53699;BME280;68408;53.952;27.612;2024-01-27T10:03:51;1013.1;;;6.7;54.7
53699;BME280;68408;53.952;27.612;2024-01-27T10:09:21;1013;;;6.8;54.6
53699;BME280;68408;53.952;27.612;2024-01-27T10:14:07;1013.2;;;6.8;54.4
53699;BME280;68408;53.952;27.612;2024-01-27T10:19:29;1013.2;;;6.8;54.5
53699;BME280;68408;53.952;27.612;2024-01-27T10:23:57;1013.2;;;6.9;54.1
53699;BME280;68408;53.952;27.612;2024-01-27T10:29:29;1013.2;;;6.8;53.8
53699;BME280;68408;53.952;27.612;2024-01-27T10:34:09;1013.3;;;6.8;53.6
53699;BME280;68408;53.952;27.612;2024-01-27T10:39:17;1013.4;;;6.8;53.4
53699;BME280;68408;53.952;27.612;2024-01-27T10:43:51;1013.4;;;6.9;53.1
53699;BME280;68408;53.952;27.612;2024-01-27T10:49:15;1013.4;;;7;52.9
53699;BME280;68408;53.952;27.612;2024-01-27T10:54:29;1013.4;;;7.1;52.8
53699;BME280;68408;53.952;27.612;2024-01-27T10:59:11;1013.4;;;7.2;52.4
53699;BME280;68408;53.952;27.612;2024-01-27T11:03:51;1013.5;;;7;52
53699;BME280;68408;53.952;27.612;2024-01-27T11:09:29;1013.6;;;6.9;51.6
53699;BME280;68408;53.952;27.612;2024-01-27T11:14:29;1013.7;;;6.7;52.3
53699;BME280;68408;53.952;27.612;2024-01-27T11:19:21;1013.7;;;6.7;52.3
53699;BME280;68408;53.952;27.612;2024-01-27T11:23:51;1013.7;;;6.9;51.9
53699;BME280;68408;53.952;27.612;2024-01-27T11:28:51;1013.7;;;6.8;52.5
53699;BME280;68408;53.952;27.612;2024-01-27T11:33:57;1013.8;;;6.8;52.8
53699;BME280;68408;53.952;27.612;2024-01-27T11:38:51;1013.8;;;6.9;53
53699;BME280;68408;53.952;27.612;2024-01-27T11:44:21;1013.9;;;6.9;52.5
53699;BME280;68408;53.952;27.612;2024-01-27T11:49:01;1014.1;;;6.8;52.8
53699;BME280;68408;53.952;27.612;2024-01-27T11:54:29;1014.2;;;6.8;53
53699;BME280;68408;53.952;27.612;2024-01-27T11:59:01;1014.3;;;6.7;53.1
53699;BME280;68408;53.952;27.612;2024-01-27T12:04:29;1014.3;;;6.6;53.5
53699;BME280;68408;53.952;27.612;2024-01-27T12:09:05;1014.4;;;6.4;53.6
53699;BME280;68408;53.952;27.612;2024-01-27T12:14:19;1014.6;;;6.1;54.3
53699;BME280;68408;53.952;27.612;2024-01-27T12:18:59;1014.7;;;5.8;55.2
53699;BME280;68408;53.952;27.612;2024-01-27T12:24:14;1014.7;;;5.7;55.9
53699;BME280;68408;53.952;27.612;2024-01-27T12:29:33;1014.8;;;5.8;55.7
53699;BME280;68408;53.952;27.612;2024-01-27T12:34:19;1014.8;;;5.8;55.4
53699;BME280;68408;53.952;27.612;2024-01-27T12:38:53;1014.9;;;5.8;55.3
53699;BME280;68408;53.952;27.612;2024-01-27T12:44:31;1014.9;;;5.7;55.7
53699;BME280;68408;53.952;27.612;2024-01-27T12:49:31;1015;;;5.6;55.8
53699;BME280;68408;53.952;27.612;2024-01-27T12:54:21;1015.1;;;5.6;55.9
53699;BME280;68408;53.952;27.612;2024-01-27T12:58:51;1015.2;;;5.7;55.9
53699;BME280;68408;53.952;27.612;2024-01-27T13:03:51;1015.3;;;5.7;55.7
53699;BME280;68408;53.952;27.612;2024-01-27T13:09:05;1015.4;;;5.5;55.8
53699;BME280;68408;53.952;27.612;2024-01-27T13:13:51;1015.4;;;5.4;56
53699;BME280;68408;53.952;27.612;2024-01-27T13:18:51;1015.5;;;5.4;56.4
53699;BME280;68408;53.952;27.612;2024-01-27T13:24:07;1015.6;;;5.3;56.6
53699;BME280;68408;53.952;27.612;2024-01-27T13:29:09;1015.8;;;5.1;56.8
53699;BME280;68408;53.952;27.612;2024-01-27T13:33:57;1015.8;;;5;57.3
53699;BME280;68408;53.952;27.612;2024-01-27T13:39:17;1016;;;5.1;57.3
53699;BME280;68408;53.952;27.612;2024-01-27T13:43:53;1016;;;5.1;57.1
53699;BME280;68408;53.952;27.612;2024-01-27T13:49:17;1016.1;;;5;57.1
53699;BME280;68408;53.952;27.612;2024-01-27T13:54:05;1016.1;;;4.8;57.6
53699;BME280;68408;53.952;27.612;2024-01-27T13:59:09;1016.1;;;4.8;58
53699;BME280;68408;53.952;27.612;2024-01-27T14:04:19;1016.2;;;4.7;58.3
53699;BME280;68408;53.952;27.612;2024-01-27T14:09:05;1016.2;;;4.7;58.6
53699;BME280;68408;53.952;27.612;2024-01-27T14:14:19;1016.2;;;4.9;58.5
53699;BME280;68408;53.952;27.612;2024-01-27T14:18:53;1016.3;;;5;58.5
53699;BME280;68408;53.952;27.612;2024-01-27T14:24:31;1016.4;;;4.9;58.6
53699;BME280;68408;53.952;27.612;2024-01-27T14:29:09;1016.5;;;4.7;59
53699;BME280;68408;53.952;27.612;2024-01-27T14:34:13;1016.5;;;4.6;59.4
53699;BME280;68408;53.952;27.612;2024-01-27T14:38:51;1016.5;;;4.5;59.8
53699;BME280;68408;53.952;27.612;2024-01-27T14:43:51;1016.6;;;4.4;60.1
53699;BME280;68408;53.952;27.612;2024-01-27T14:49:03;1016.6;;;4.3;60.5
53699;BME280;68408;53.952;27.612;2024-01-27T14:54:05;1016.8;;;4.3;60.8
53699;BME280;68408;53.952;27.612;2024-01-27T14:58:57;1016.9;;;4.2;61
53699;BME280;68408;53.952;27.612;2024-01-27T15:04:31;1017;;;4.2;61.4
53699;BME280;68408;53.952;27.612;2024-01-27T15:09:21;1017.1;;;4.2;61.6
53699;BME280;68408;53.952;27.612;2024-01-27T15:14:31;1017.2;;;4.1;61.8
53699;BME280;68408;53.952;27.612;2024-01-27T15:19:31;1017.3;;;4.1;61.9
53699;BME280;68408;53.952;27.612;2024-01-27T15:24:07;1017.3;;;4.1;62
53699;BME280;68408;53.952;27.612;2024-01-27T15:29:31;1017.3;;;4.1;62
53699;BME280;68408;53.952;27.612;2024-01-27T15:34:31;1017.4;;;4;62.4
53699;BME280;68408;53.952;27.612;2024-01-27T15:39:19;1017.6;;;4;62.4
53699;BME280;68408;53.952;27.612;2024-01-27T15:44:05;1017.7;;;4;62.4
53699;BME280;68408;53.952;27.612;2024-01-27T15:49:11;1017.8;;;4;62.5
53699;BME280;68408;53.952;27.612;2024-01-27T15:54:21;1017.9;;;4;62.5
53699;BME280;68408;53.952;27.612;2024-01-27T15:59:29;1018;;;3.9;62.5
53699;BME280;68408;53.952;27.612;2024-01-27T16:04:09;1018.1;;;3.9;62.7
53699;BME280;68408;53.952;27.612;2024-01-27T16:09:29;1018.2;;;3.9;62.7
53699;BME280;68408;53.952;27.612;2024-01-27T16:13:57;1018.3;;;3.9;62.6
53699;BME280;68408;53.952;27.612;2024-01-27T16:18:58;1018.4;;;3.8;62.8
53699;BME280;68408;53.952;27.612;2024-01-27T16:23:51;1018.5;;;3.8;63.1
53699;BME280;68408;53.952;27.612;2024-01-27T16:29:05;1018.5;;;3.7;63.1
53699;BME280;68408;53.952;27.612;2024-01-27T16:34:09;1018.5;;;3.5;63.5
53699;BME280;68408;53.952;27.612;2024-01-27T16:39:31;1018.6;;;3.4;63.8
53699;BME280;68408;53.952;27.612;2024-01-27T16:43:53;1018.7;;;3.2;64.3
53699;BME280;68408;53.952;27.612;2024-01-27T16:49:31;1018.7;;;3.2;64.5
53699;BME280;68408;53.952;27.612;2024-01-27T16:54:32;1018.8;;;3;64.8
53699;BME280;68408;53.952;27.612;2024-01-27T16:58:51;1018.9;;;3;65.1
53699;BME280;68408;53.952;27.612;2024-01-27T17:04:31;1018.9;;;2.9;65.2
53699;BME280;68408;53.952;27.612;2024-01-27T17:09:31;1019;;;2.9;65.5
53699;BME280;68408;53.952;27.612;2024-01-27T17:14:19;1019.1;;;2.8;65.8
53699;BME280;68408;53.952;27.612;2024-01-27T17:19:05;1019.2;;;2.8;66
53699;BME280;68408;53.952;27.612;2024-01-27T17:24:09;1019.2;;;2.8;66
53699;BME280;68408;53.952;27.612;2024-01-27T17:29:21;1019.2;;;2.9;65.7
53699;BME280;68408;53.952;27.612;2024-01-27T17:34:31;1019.2;;;2.9;65.7
53699;BME280;68408;53.952;27.612;2024-01-27T17:38:57;1019.3;;;2.9;65.7
53699;BME280;68408;53.952;27.612;2024-01-27T17:44:31;1019.5;;;2.9;65.8
53699;BME280;68408;53.952;27.612;2024-01-27T17:49:21;1019.5;;;2.9;65.6
53699;BME280;68408;53.952;27.612;2024-01-27T17:53:51;1019.5;;;2.9;65.6
53699;BME280;68408;53.952;27.612;2024-01-27T17:58:51;1019.6;;;2.8;65.8
53699;BME280;68408;53.952;27.612;2024-01-27T18:03:55;1019.6;;;2.7;65.9
53699;BME280;68408;53.952;27.612;2024-01-27T18:09:09;1019.7;;;2.7;66.1
53699;BME280;68408;53.952;27.612;2024-01-27T18:14:06;1019.8;;;2.7;66
53699;BME280;68408;53.952;27.612;2024-01-27T18:19:19;1019.8;;;2.7;65.7
53699;BME280;68408;53.952;27.612;2024-01-27T18:23:51;1019.9;;;2.7;65.6
53699;BME280;68408;53.952;27.612;2024-01-27T18:29:29;1020;;;2.6;65.7
53699;BME280;68408;53.952;27.612;2024-01-27T18:34:05;1020.1;;;2.6;66.1
53699;BME280;68408;53.952;27.612;2024-01-27T18:39:29;1020.1;;;2.5;66.3
53699;BME280;68408;53.952;27.612;2024-01-27T18:43:59;1020.2;;;2.5;66.2
53699;BME280;68408;53.952;27.612;2024-01-27T18:49:07;1020.3;;;2.5;66.4
53699;BME280;68408;53.952;27.612;2024-01-27T18:53:51;1020.3;;;2.5;66.5
53699;BME280;68408;53.952;27.612;2024-01-27T18:58:59;1020.3;;;2.5;66.6
53699;BME280;68408;53.952;27.612;2024-01-27T19:04:31;1020.4;;;2.4;66.4
53699;BME280;68408;53.952;27.612;2024-01-27T19:09:17;1020.5;;;2.4;66.3
53699;BME280;68408;53.952;27.612;2024-01-27T19:13:51;1020.5;;;2.4;66.7
53699;BME280;68408;53.952;27.612;2024-01-27T19:19:31;1020.6;;;2.4;66.3
53699;BME280;68408;53.952;27.612;2024-01-27T19:24:31;1020.6;;;2.4;65.5
53699;BME280;68408;53.952;27.612;2024-01-27T19:29:19;1020.7;;;2.3;65.4
53699;BME280;68408;53.952;27.612;2024-01-27T19:33:51;1020.8;;;2.3;65.5
53699;BME280;68408;53.952;27.612;2024-01-27T19:39:01;1020.9;;;2.4;65.6
53699;BME280;68408;53.952;27.612;2024-01-27T19:43:57;1020.9;;;2.5;64.9
53699;BME280;68408;53.952;27.612;2024-01-27T19:49:01;1021.1;;;2.5;64.8
53699;BME280;68408;53.952;27.612;2024-01-27T19:53:57;1021.1;;;2.6;64.9
53699;BME280;68408;53.952;27.612;2024-01-27T19:59:07;1021.2;;;2.6;64.3
53699;BME280;68408;53.952;27.612;2024-01-27T20:04:17;1021.2;;;2.7;64.5
53699;BME280;68408;53.952;27.612;2024-01-27T20:09:07;1021.3;;;2.8;64
53699;BME280;68408;53.952;27.612;2024-01-27T20:14:31;1021.3;;;2.9;63.4
53699;BME280;68408;53.952;27.612;2024-01-27T20:19:05;1021.3;;;3;63.4
53699;BME280;68408;53.952;27.612;2024-01-27T20:24:19;1021.3;;;3;63.3
53699;BME280;68408;53.952;27.612;2024-01-27T20:29:05;1021.4;;;3.1;63.5
53699;BME280;68408;53.952;27.612;2024-01-27T20:34:17;1021.4;;;3.1;63.1
53699;BME280;68408;53.952;27.612;2024-01-27T20:39:31;1021.5;;;3.1;63
53699;BME280;68408;53.952;27.612;2024-01-27T20:44:19;1021.6;;;3.1;63.1
53699;BME280;68408;53.952;27.612;2024-01-27T20:49:09;1021.6;;;3.2;62.9
53699;BME280;68408;53.952;27.612;2024-01-27T20:54:31;1021.7;;;3.2;63
53699;BME280;68408;53.952;27.612;2024-01-27T20:59:31;1021.7;;;3.3;63.2
53699;BME280;68408;53.952;27.612;2024-01-27T21:04:15;1021.7;;;3.3;62.6
53699;BME280;68408;53.952;27.612;2024-01-27T21:09:03;1021.7;;;3.2;62.9
53699;BME280;68408;53.952;27.612;2024-01-27T21:13:57;1021.8;;;3.2;62.8
53699;BME280;68408;53.952;27.612;2024-01-27T21:18:57;1021.9;;;3.1;63
53699;BME280;68408;53.952;27.612;2024-01-27T21:24:07;1021.9;;;3;63.4
53699;BME280;68408;53.952;27.612;2024-01-27T21:28:57;1021.9;;;3.1;63.3
53699;BME280;68408;53.952;27.612;2024-01-27T21:34:11;1021.9;;;3;63.1
53699;BME280;68408;53.952;27.612;2024-01-27T21:39:17;1022;;;3;63.3
53699;BME280;68408;53.952;27.612;2024-01-27T21:44:07;1022;;;3;63.5
53699;BME280;68408;53.952;27.612;2024-01-27T21:49:31;1022.1;;;3;63.6
53699;BME280;68408;53.952;27.612;2024-01-27T21:54:21;1022.1;;;3;63.6
53699;BME280;68408;53.952;27.612;2024-01-27T21:59:11;1022.1;;;3;63.2
53699;BME280;68408;53.952;27.612;2024-01-27T22:04:19;1022.2;;;2.9;63.3
53699;BME280;68408;53.952;27.612;2024-01-27T22:09:17;1022.3;;;2.9;63.2
53699;BME280;68408;53.952;27.612;2024-01-27T22:14:19;1022.4;;;2.9;63.3
53699;BME280;68408;53.952;27.612;2024-01-27T22:18:57;1022.4;;;2.9;63.5
53699;BME280;68408;53.952;27.612;2024-01-27T22:24:10;1022.4;;;2.9;63.6
53699;BME280;68408;53.952;27.612;2024-01-27T22:29:09;1022.4;;;2.9;63.6
53699;BME280;68408;53.952;27.612;2024-01-27T22:34:31;1022.5;;;2.9;63.4
53699;BME280;68408;53.952;27.612;2024-01-27T22:39:03;1022.6;;;2.8;63.6
53699;BME280;68408;53.952;27.612;2024-01-27T22:44:07;1022.6;;;2.8;63.8
53699;BME280;68408;53.952;27.612;2024-01-27T22:48:52;1022.6;;;2.8;63.9
53699;BME280;68408;53.952;27.612;2024-01-27T22:53:52;1022.7;;;2.7;63.9
53699;BME280;68408;53.952;27.612;2024-01-27T22:58:57;1022.9;;;2.7;64
53699;BME280;68408;53.952;27.612;2024-01-27T23:03:52;1022.9;;;2.8;64.1
53699;BME280;68408;53.952;27.612;2024-01-27T23:09:10;1023;;;2.8;64
53699;BME280;68408;53.952;27.612;2024-01-27T23:14:31;1023.1;;;2.9;63.9
53699;BME280;68408;53.952;27.612;2024-01-27T23:19:21;1023.2;;;2.9;63.6
53699;BME280;68408;53.952;27.612;2024-01-27T23:24:31;1023.2;;;2.9;63.6
53699;BME280;68408;53.952;27.612;2024-01-27T23:29:31;1023.3;;;2.9;63.6
53699;BME280;68408;53.952;27.612;2024-01-27T23:34:01;1023.2;;;2.9;63.7
53699;BME280;68408;53.952;27.612;2024-01-27T23:39:31;1023.3;;;2.9;63.4
53699;BME280;68408;53.952;27.612;2024-01-27T23:44:31;1023.3;;;2.8;63.8
53699;BME280;68408;53.952;27.612;2024-01-27T23:49:19;1023.3;;;2.8;64.2
53699;BME280;68408;53.952;27.612;2024-01-27T23:53:59;1023.4;;;2.7;64.6
53699;BME280;68408;53.952;27.612;2024-01-27T23:59:09;1023.4;;;2.6;65
